sensor_id;sensor_type;location;lat;lon;timestamp;temperature;humidity
9116;DHT22;4593;53.652;10.168;2023-03-01T00:01:24;-1.30;91.30
9116;DHT22;4593;53.652;10.168;2023-03-01T00:03:51;-1.40;91.60
9116;DHT22;4593;53.652;10.168;2023-03-01T00:06:17;-1.30;91.60
9116;DHT22;4593;53.652;10.168;2023-03-01T00:08:42;-1.30;91.60
9116;DHT22;4593;53.652;10.168;2023-03-01T00:11:24;-1.40;91.70
9116;DHT22;4593;53.652;10.168;2023-03-01T00:13:52;-1.40;91.70
9116;DHT22;4593;53.652;10.168;2023-03-01T00:16:22;-1.40;92.10
9116;DHT22;4593;53.652;10.168;2023-03-01T00:18:48;-1.30;91.80
9116;DHT22;4593;53.652;10.168;2023-03-01T00:21:14;-1.30;91.80
9116;DHT22;4593;53.652;10.168;2023-03-01T00:23:40;-1.30;91.60
9116;DHT22;4593;53.652;10.168;2023-03-01T00:26:08;-1.30;91.50
9116;DHT22;4593;53.652;10.168;2023-03-01T00:28:34;-1.30;91.50
9116;DHT22;4593;53.652;10.168;2023-03-01T00:31:14;-1.30;91.50
9116;DHT22;4593;53.652;10.168;2023-03-01T00:33:40;-1.30;91.40
9116;DHT22;4593;53.652;10.168;2023-03-01T00:36:06;-1.30;91.40
9116;DHT22;4593;53.652;10.168;2023-03-01T00:38:36;-1.30;91.50
9116;DHT22;4593;53.652;10.168;2023-03-01T00:41:06;-1.40;91.40
9116;DHT22;4593;53.652;10.168;2023-03-01T00:43:32;-1.30;91.40
9116;DHT22;4593;53.652;10.168;2023-03-01T00:46:06;-1.40;91.40
9116;DHT22;4593;53.652;10.168;2023-03-01T00:48:32;-1.40;91.10
9116;DHT22;4593;53.652;10.168;2023-03-01T00:51:08;-1.40;91.30
9116;DHT22;4593;53.652;10.168;2023-03-01T00:53:34;-1.40;91.30
9116;DHT22;4593;53.652;10.168;2023-03-01T00:56:00;-1.30;91.40
9116;DHT22;4593;53.652;10.168;2023-03-01T00:58:26;-1.30;91.50
9116;DHT22;4593;53.652;10.168;2023-03-01T01:00:52;-1.30;91.30
9116;DHT22;4593;53.652;10.168;2023-03-01T01:03:21;-1.30;91.40
9116;DHT22;4593;53.652;10.168;2023-03-01T01:05:47;-1.30;91.30
9116;DHT22;4593;53.652;10.168;2023-03-01T01:08:13;-1.30;91.40
9116;DHT22;4593;53.652;10.168;2023-03-01T01:10:38;-1.40;91.40
9116;DHT22;4593;53.652;10.168;2023-03-01T01:13:04;-1.40;91.40
9116;DHT22;4593;53.652;10.168;2023-03-01T01:15:33;-1.50;91.80
9116;DHT22;4593;53.652;10.168;2023-03-01T01:18:00;-1.50;91.80
9116;DHT22;4593;53.652;10.168;2023-03-01T01:20:26;-1.50;91.40
9116;DHT22;4593;53.652;10.168;2023-03-01T01:22:51;-1.50;91.60
9116;DHT22;4593;53.652;10.168;2023-03-01T01:25:18;-1.50;91.90
9116;DHT22;4593;53.652;10.168;2023-03-01T01:27:43;-1.50;91.80
9116;DHT22;4593;53.652;10.168;2023-03-01T01:30:09;-1.50;91.60
9116;DHT22;4593;53.652;10.168;2023-03-01T01:32:35;-1.50;91.60
9116;DHT22;4593;53.652;10.168;2023-03-01T01:35:01;-1.60;91.80
9116;DHT22;4593;53.652;10.168;2023-03-01T01:37:26;-1.60;91.90
9116;DHT22;4593;53.652;10.168;2023-03-01T01:39:57;-1.60;92.10
9116;DHT22;4593;53.652;10.168;2023-03-01T01:42:24;-1.60;92.00
9116;DHT22;4593;53.652;10.168;2023-03-01T01:45:30;-1.50;92.00
9116;DHT22;4593;53.652;10.168;2023-03-01T01:48:00;-1.50;91.90
9116;DHT22;4593;53.652;10.168;2023-03-01T01:50:28;-1.60;91.90
9116;DHT22;4593;53.652;10.168;2023-03-01T01:53:05;-1.60;91.90
9116;DHT22;4593;53.652;10.168;2023-03-01T01:55:32;-1.60;92.10
9116;DHT22;4593;53.652;10.168;2023-03-01T01:58:02;-1.60;91.80
9116;DHT22;4593;53.652;10.168;2023-03-01T02:00:30;-1.60;92.20
9116;DHT22;4593;53.652;10.168;2023-03-01T02:03:10;-1.60;92.20
9116;DHT22;4593;53.652;10.168;2023-03-01T02:08:26;-1.70;92.10
9116;DHT22;4593;53.652;10.168;2023-03-01T02:10:53;-1.70;92.10
9116;DHT22;4593;53.652;10.168;2023-03-01T02:13:20;-1.70;92.10
9116;DHT22;4593;53.652;10.168;2023-03-01T02:15:46;-1.70;92.30
9116;DHT22;4593;53.652;10.168;2023-03-01T02:18:14;-1.70;92.30
9116;DHT22;4593;53.652;10.168;2023-03-01T02:20:48;-1.70;92.60
9116;DHT22;4593;53.652;10.168;2023-03-01T02:23:17;-1.70;92.70
9116;DHT22;4593;53.652;10.168;2023-03-01T02:26:27;-1.70;92.40
9116;DHT22;4593;53.652;10.168;2023-03-01T02:28:54;-1.80;92.70
9116;DHT22;4593;53.652;10.168;2023-03-01T02:31:21;-1.80;92.80
9116;DHT22;4593;53.652;10.168;2023-03-01T02:34:07;-1.80;93.00
9116;DHT22;4593;53.652;10.168;2023-03-01T02:36:40;-1.70;92.90
9116;DHT22;4593;53.652;10.168;2023-03-01T02:39:07;-1.70;92.80
9116;DHT22;4593;53.652;10.168;2023-03-01T02:41:42;-1.70;92.50
9116;DHT22;4593;53.652;10.168;2023-03-01T02:44:08;-1.80;92.70
9116;DHT22;4593;53.652;10.168;2023-03-01T02:46:42;-1.80;92.70
9116;DHT22;4593;53.652;10.168;2023-03-01T02:49:37;-1.90;92.80
9116;DHT22;4593;53.652;10.168;2023-03-01T02:52:36;-1.90;93.10
9116;DHT22;4593;53.652;10.168;2023-03-01T02:55:07;-1.90;93.20
9116;DHT22;4593;53.652;10.168;2023-03-01T02:57:35;-1.90;93.20
9116;DHT22;4593;53.652;10.168;2023-03-01T03:00:06;-2.00;93.20
9116;DHT22;4593;53.652;10.168;2023-03-01T03:02:33;-2.00;93.30
9116;DHT22;4593;53.652;10.168;2023-03-01T03:05:13;-2.00;93.40
9116;DHT22;4593;53.652;10.168;2023-03-01T03:07:42;-2.00;93.30
9116;DHT22;4593;53.652;10.168;2023-03-01T03:10:15;-1.90;93.40
9116;DHT22;4593;53.652;10.168;2023-03-01T03:12:41;-1.90;93.40
9116;DHT22;4593;53.652;10.168;2023-03-01T03:15:09;-1.90;93.30
9116;DHT22;4593;53.652;10.168;2023-03-01T03:17:39;-1.90;93.30
9116;DHT22;4593;53.652;10.168;2023-03-01T03:20:07;-1.90;93.00
9116;DHT22;4593;53.652;10.168;2023-03-01T03:22:40;-1.90;93.10
9116;DHT22;4593;53.652;10.168;2023-03-01T03:25:07;-1.80;93.10
9116;DHT22;4593;53.652;10.168;2023-03-01T03:27:36;-1.70;93.10
9116;DHT22;4593;53.652;10.168;2023-03-01T03:30:04;-1.60;92.50
9116;DHT22;4593;53.652;10.168;2023-03-01T03:32:35;-1.40;92.20
9116;DHT22;4593;53.652;10.168;2023-03-01T03:35:01;-1.30;91.80
9116;DHT22;4593;53.652;10.168;2023-03-01T03:37:27;-1.30;91.30
9116;DHT22;4593;53.652;10.168;2023-03-01T03:40:11;-1.20;91.20
9116;DHT22;4593;53.652;10.168;2023-03-01T03:42:41;-1.10;90.90
9116;DHT22;4593;53.652;10.168;2023-03-01T03:45:07;-1.10;90.80
9116;DHT22;4593;53.652;10.168;2023-03-01T03:47:32;-1.00;90.50
9116;DHT22;4593;53.652;10.168;2023-03-01T03:49:58;-1.00;90.50
9116;DHT22;4593;53.652;10.168;2023-03-01T03:52:23;-0.90;90.20
9116;DHT22;4593;53.652;10.168;2023-03-01T03:54:49;-0.90;90.00
9116;DHT22;4593;53.652;10.168;2023-03-01T03:57:15;-0.80;90.00
9116;DHT22;4593;53.652;10.168;2023-03-01T03:59:40;-0.70;90.10
9116;DHT22;4593;53.652;10.168;2023-03-01T04:02:06;-0.60;90.00
9116;DHT22;4593;53.652;10.168;2023-03-01T04:04:34;-0.50;89.80
9116;DHT22;4593;53.652;10.168;2023-03-01T04:07:00;-0.50;89.70
9116;DHT22;4593;53.652;10.168;2023-03-01T04:09:25;-0.40;89.70
9116;DHT22;4593;53.652;10.168;2023-03-01T04:11:51;-0.30;89.40
9116;DHT22;4593;53.652;10.168;2023-03-01T04:14:16;-0.20;89.20
9116;DHT22;4593;53.652;10.168;2023-03-01T04:16:42;-0.10;89.10
9116;DHT22;4593;53.652;10.168;2023-03-01T04:19:08;-0.10;89.00
9116;DHT22;4593;53.652;10.168;2023-03-01T04:21:34;0.00;88.90
9116;DHT22;4593;53.652;10.168;2023-03-01T04:24:01;0.00;88.90
9116;DHT22;4593;53.652;10.168;2023-03-01T04:26:29;0.00;88.80
9116;DHT22;4593;53.652;10.168;2023-03-01T04:28:54;0.00;88.40
9116;DHT22;4593;53.652;10.168;2023-03-01T04:31:20;0.10;88.20
9116;DHT22;4593;53.652;10.168;2023-03-01T04:33:54;0.10;88.00
9116;DHT22;4593;53.652;10.168;2023-03-01T04:36:23;0.20;88.10
9116;DHT22;4593;53.652;10.168;2023-03-01T04:38:49;0.20;87.70
9116;DHT22;4593;53.652;10.168;2023-03-01T04:41:17;0.20;87.90
9116;DHT22;4593;53.652;10.168;2023-03-01T04:43:43;0.30;87.80
9116;DHT22;4593;53.652;10.168;2023-03-01T04:46:12;0.30;87.40
9116;DHT22;4593;53.652;10.168;2023-03-01T04:48:39;0.40;87.70
9116;DHT22;4593;53.652;10.168;2023-03-01T04:51:05;0.40;87.30
9116;DHT22;4593;53.652;10.168;2023-03-01T04:53:31;0.40;87.20
9116;DHT22;4593;53.652;10.168;2023-03-01T04:55:58;0.50;87.10
9116;DHT22;4593;53.652;10.168;2023-03-01T04:58:26;0.50;87.00
9116;DHT22;4593;53.652;10.168;2023-03-01T05:00:52;0.60;87.00
9116;DHT22;4593;53.652;10.168;2023-03-01T05:03:18;0.60;86.90
9116;DHT22;4593;53.652;10.168;2023-03-01T05:05:46;0.70;86.70
9116;DHT22;4593;53.652;10.168;2023-03-01T05:08:12;0.70;86.70
9116;DHT22;4593;53.652;10.168;2023-03-01T05:10:50;0.70;86.40
9116;DHT22;4593;53.652;10.168;2023-03-01T05:13:17;0.70;86.40
9116;DHT22;4593;53.652;10.168;2023-03-01T05:15:58;0.70;86.00
9116;DHT22;4593;53.652;10.168;2023-03-01T05:18:25;0.70;86.00
9116;DHT22;4593;53.652;10.168;2023-03-01T05:20:54;0.80;85.90
9116;DHT22;4593;53.652;10.168;2023-03-01T05:23:24;0.80;85.90
9116;DHT22;4593;53.652;10.168;2023-03-01T05:25:50;0.80;85.60
9116;DHT22;4593;53.652;10.168;2023-03-01T05:28:18;0.90;85.40
9116;DHT22;4593;53.652;10.168;2023-03-01T05:30:45;0.90;85.50
9116;DHT22;4593;53.652;10.168;2023-03-01T05:33:11;0.90;85.10
9116;DHT22;4593;53.652;10.168;2023-03-01T05:35:43;1.00;84.50
9116;DHT22;4593;53.652;10.168;2023-03-01T05:38:11;1.00;84.30
9116;DHT22;4593;53.652;10.168;2023-03-01T05:40:44;1.00;84.30
9116;DHT22;4593;53.652;10.168;2023-03-01T05:43:11;0.90;84.30
9116;DHT22;4593;53.652;10.168;2023-03-01T05:45:38;0.90;84.40
9116;DHT22;4593;53.652;10.168;2023-03-01T05:48:06;0.90;84.50
9116;DHT22;4593;53.652;10.168;2023-03-01T05:50:37;0.90;84.70
9116;DHT22;4593;53.652;10.168;2023-03-01T05:53:07;0.80;84.80
9116;DHT22;4593;53.652;10.168;2023-03-01T05:55:35;0.80;84.70
9116;DHT22;4593;53.652;10.168;2023-03-01T05:58:02;0.70;85.00
9116;DHT22;4593;53.652;10.168;2023-03-01T06:00:29;0.70;85.40
9116;DHT22;4593;53.652;10.168;2023-03-01T06:02:56;0.70;85.70
9116;DHT22;4593;53.652;10.168;2023-03-01T06:05:22;0.70;85.60
9116;DHT22;4593;53.652;10.168;2023-03-01T06:07:48;0.60;85.50
9116;DHT22;4593;53.652;10.168;2023-03-01T06:10:16;0.60;85.70
9116;DHT22;4593;53.652;10.168;2023-03-01T06:12:43;0.50;86.00
9116;DHT22;4593;53.652;10.168;2023-03-01T06:15:11;0.50;86.60
9116;DHT22;4593;53.652;10.168;2023-03-01T06:17:39;0.60;86.70
9116;DHT22;4593;53.652;10.168;2023-03-01T06:20:13;0.60;86.50
9116;DHT22;4593;53.652;10.168;2023-03-01T06:22:40;0.70;86.50
9116;DHT22;4593;53.652;10.168;2023-03-01T06:25:07;0.80;86.40
9116;DHT22;4593;53.652;10.168;2023-03-01T06:27:33;0.90;86.40
9116;DHT22;4593;53.652;10.168;2023-03-01T06:29:58;1.00;85.90
9116;DHT22;4593;53.652;10.168;2023-03-01T06:32:24;1.10;85.60
9116;DHT22;4593;53.652;10.168;2023-03-01T06:34:50;1.20;85.70
9116;DHT22;4593;53.652;10.168;2023-03-01T06:37:15;1.20;85.50
9116;DHT22;4593;53.652;10.168;2023-03-01T06:39:41;1.30;85.40
9116;DHT22;4593;53.652;10.168;2023-03-01T06:42:08;1.40;85.40
9116;DHT22;4593;53.652;10.168;2023-03-01T06:44:35;1.50;85.20
9116;DHT22;4593;53.652;10.168;2023-03-01T06:47:01;1.50;84.90
9116;DHT22;4593;53.652;10.168;2023-03-01T06:49:27;1.60;84.70
9116;DHT22;4593;53.652;10.168;2023-03-01T06:51:53;1.70;84.70
9116;DHT22;4593;53.652;10.168;2023-03-01T06:54:19;1.80;84.60
9116;DHT22;4593;53.652;10.168;2023-03-01T06:56:48;1.70;84.30
9116;DHT22;4593;53.652;10.168;2023-03-01T06:59:14;1.80;84.20
9116;DHT22;4593;53.652;10.168;2023-03-01T07:01:40;1.90;84.00
9116;DHT22;4593;53.652;10.168;2023-03-01T07:04:06;1.90;83.60
9116;DHT22;4593;53.652;10.168;2023-03-01T07:06:32;2.00;83.30
9116;DHT22;4593;53.652;10.168;2023-03-01T07:08:57;2.00;82.70
9116;DHT22;4593;53.652;10.168;2023-03-01T07:11:23;2.10;82.50
9116;DHT22;4593;53.652;10.168;2023-03-01T07:13:49;2.20;82.20
9116;DHT22;4593;53.652;10.168;2023-03-01T07:16:14;2.20;81.80
9116;DHT22;4593;53.652;10.168;2023-03-01T07:18:41;2.30;81.40
9116;DHT22;4593;53.652;10.168;2023-03-01T07:21:12;2.40;80.90
9116;DHT22;4593;53.652;10.168;2023-03-01T07:23:38;2.50;79.90
9116;DHT22;4593;53.652;10.168;2023-03-01T07:26:05;2.40;79.60
9116;DHT22;4593;53.652;10.168;2023-03-01T07:28:30;2.50;79.50
9116;DHT22;4593;53.652;10.168;2023-03-01T07:31:01;2.50;79.30
9116;DHT22;4593;53.652;10.168;2023-03-01T07:33:27;2.60;78.90
9116;DHT22;4593;53.652;10.168;2023-03-01T07:36:00;2.70;78.70
9116;DHT22;4593;53.652;10.168;2023-03-01T07:38:27;2.80;78.00
9116;DHT22;4593;53.652;10.168;2023-03-01T07:40:53;2.80;77.50
9116;DHT22;4593;53.652;10.168;2023-03-01T07:43:19;2.80;77.40
9116;DHT22;4593;53.652;10.168;2023-03-01T07:45:46;2.90;77.10
9116;DHT22;4593;53.652;10.168;2023-03-01T07:48:12;2.90;77.00
9116;DHT22;4593;53.652;10.168;2023-03-01T07:50:37;3.10;76.80
9116;DHT22;4593;53.652;10.168;2023-03-01T07:53:03;3.30;76.60
9116;DHT22;4593;53.652;10.168;2023-03-01T07:55:30;3.40;76.10
9116;DHT22;4593;53.652;10.168;2023-03-01T07:57:55;3.50;75.50
9116;DHT22;4593;53.652;10.168;2023-03-01T08:00:21;3.60;75.30
9116;DHT22;4593;53.652;10.168;2023-03-01T08:02:47;3.70;75.10
9116;DHT22;4593;53.652;10.168;2023-03-01T08:05:12;3.70;74.60
9116;DHT22;4593;53.652;10.168;2023-03-01T08:07:38;3.40;74.00
9116;DHT22;4593;53.652;10.168;2023-03-01T08:10:04;3.20;74.20
9116;DHT22;4593;53.652;10.168;2023-03-01T08:12:30;3.00;75.40
9116;DHT22;4593;53.652;10.168;2023-03-01T08:14:55;2.90;76.00
9116;DHT22;4593;53.652;10.168;2023-03-01T08:17:22;2.90;76.30
9116;DHT22;4593;53.652;10.168;2023-03-01T08:19:48;2.90;76.90
9116;DHT22;4593;53.652;10.168;2023-03-01T08:22:14;2.80;77.70
9116;DHT22;4593;53.652;10.168;2023-03-01T08:24:39;2.70;78.70
9116;DHT22;4593;53.652;10.168;2023-03-01T08:27:05;2.70;79.50
9116;DHT22;4593;53.652;10.168;2023-03-01T08:29:31;2.70;79.80
9116;DHT22;4593;53.652;10.168;2023-03-01T08:31:57;2.70;80.00
9116;DHT22;4593;53.652;10.168;2023-03-01T08:34:23;2.60;80.30
9116;DHT22;4593;53.652;10.168;2023-03-01T08:36:49;2.70;80.60
9116;DHT22;4593;53.652;10.168;2023-03-01T08:39:18;2.70;80.90
9116;DHT22;4593;53.652;10.168;2023-03-01T08:41:44;2.80;81.00
9116;DHT22;4593;53.652;10.168;2023-03-01T08:44:11;3.00;81.10
9116;DHT22;4593;53.652;10.168;2023-03-01T08:46:40;3.20;80.70
9116;DHT22;4593;53.652;10.168;2023-03-01T08:49:11;3.40;80.00
9116;DHT22;4593;53.652;10.168;2023-03-01T08:51:38;3.50;79.60
9116;DHT22;4593;53.652;10.168;2023-03-01T08:54:25;3.90;78.90
9116;DHT22;4593;53.652;10.168;2023-03-01T08:56:50;4.00;77.60
9116;DHT22;4593;53.652;10.168;2023-03-01T08:59:17;4.10;76.70
9116;DHT22;4593;53.652;10.168;2023-03-01T09:01:42;4.20;76.10
9116;DHT22;4593;53.652;10.168;2023-03-01T09:04:12;4.30;75.90
9116;DHT22;4593;53.652;10.168;2023-03-01T09:06:38;4.50;75.30
9116;DHT22;4593;53.652;10.168;2023-03-01T09:09:05;4.70;74.50
9116;DHT22;4593;53.652;10.168;2023-03-01T09:11:31;4.70;74.20
9116;DHT22;4593;53.652;10.168;2023-03-01T09:13:57;4.80;73.90
9116;DHT22;4593;53.652;10.168;2023-03-01T09:16:23;5.00;73.70
9116;DHT22;4593;53.652;10.168;2023-03-01T09:18:51;5.20;73.10
9116;DHT22;4593;53.652;10.168;2023-03-01T09:21:18;5.40;72.20
9116;DHT22;4593;53.652;10.168;2023-03-01T09:23:45;5.60;71.80
9116;DHT22;4593;53.652;10.168;2023-03-01T09:26:16;5.30;72.00
9116;DHT22;4593;53.652;10.168;2023-03-01T09:28:45;5.20;72.80
9116;DHT22;4593;53.652;10.168;2023-03-01T09:31:12;5.30;73.20
9116;DHT22;4593;53.652;10.168;2023-03-01T09:33:39;5.40;73.50
9116;DHT22;4593;53.652;10.168;2023-03-01T09:36:08;5.10;73.30
9116;DHT22;4593;53.652;10.168;2023-03-01T09:38:35;5.00;74.30
9116;DHT22;4593;53.652;10.168;2023-03-01T09:41:01;5.00;74.60
9116;DHT22;4593;53.652;10.168;2023-03-01T09:46:07;5.20;74.80
9116;DHT22;4593;53.652;10.168;2023-03-01T09:48:52;5.30;74.50
9116;DHT22;4593;53.652;10.168;2023-03-01T09:51:32;5.00;75.00
9116;DHT22;4593;53.652;10.168;2023-03-01T09:53:58;4.80;75.90
9116;DHT22;4593;53.652;10.168;2023-03-01T09:56:30;4.70;76.10
9116;DHT22;4593;53.652;10.168;2023-03-01T09:59:09;4.80;76.60
9116;DHT22;4593;53.652;10.168;2023-03-01T10:10:07;5.00;76.20
9116;DHT22;4593;53.652;10.168;2023-03-01T10:12:37;5.00;76.20
9116;DHT22;4593;53.652;10.168;2023-03-01T10:15:06;5.00;76.30
9116;DHT22;4593;53.652;10.168;2023-03-01T10:18:00;5.00;76.80
9116;DHT22;4593;53.652;10.168;2023-03-01T10:20:49;5.00;76.90
9116;DHT22;4593;53.652;10.168;2023-03-01T10:23:17;5.10;76.90
9116;DHT22;4593;53.652;10.168;2023-03-01T10:28:23;5.30;76.60
9116;DHT22;4593;53.652;10.168;2023-03-01T10:30:50;5.30;76.80
9116;DHT22;4593;53.652;10.168;2023-03-01T10:33:32;5.30;77.20
9116;DHT22;4593;53.652;10.168;2023-03-01T10:35:58;5.10;78.50
9116;DHT22;4593;53.652;10.168;2023-03-01T10:38:24;5.20;78.80
9116;DHT22;4593;53.652;10.168;2023-03-01T10:43:20;5.20;79.00
9116;DHT22;4593;53.652;10.168;2023-03-01T10:45:47;5.20;79.20
9116;DHT22;4593;53.652;10.168;2023-03-01T10:48:25;5.20;79.60
9116;DHT22;4593;53.652;10.168;2023-03-01T10:53:40;5.40;78.90
9116;DHT22;4593;53.652;10.168;2023-03-01T10:56:07;5.50;78.50
9116;DHT22;4593;53.652;10.168;2023-03-01T10:58:36;5.40;78.60
9116;DHT22;4593;53.652;10.168;2023-03-01T11:03:42;5.50;79.30
9116;DHT22;4593;53.652;10.168;2023-03-01T11:13:36;5.50;78.90
9116;DHT22;4593;53.652;10.168;2023-03-01T11:16:07;5.50;79.40
9116;DHT22;4593;53.652;10.168;2023-03-01T11:18:35;5.70;78.90
9116;DHT22;4593;53.652;10.168;2023-03-01T11:21:01;5.70;78.40
9116;DHT22;4593;53.652;10.168;2023-03-01T11:23:29;5.80;78.10
9116;DHT22;4593;53.652;10.168;2023-03-01T11:25:58;5.90;77.50
9116;DHT22;4593;53.652;10.168;2023-03-01T11:28:27;6.00;77.30
9116;DHT22;4593;53.652;10.168;2023-03-01T11:36:05;6.20;76.60
9116;DHT22;4593;53.652;10.168;2023-03-01T11:38:34;6.30;76.50
9116;DHT22;4593;53.652;10.168;2023-03-01T11:51:55;6.40;74.70
9116;DHT22;4593;53.652;10.168;2023-03-01T11:54:48;6.50;74.50
9116;DHT22;4593;53.652;10.168;2023-03-01T12:08:43;6.80;72.90
9116;DHT22;4593;53.652;10.168;2023-03-01T12:14:23;6.70;73.20
9116;DHT22;4593;53.652;10.168;2023-03-01T12:22:54;7.10;73.20
9116;DHT22;4593;53.652;10.168;2023-03-01T12:25:28;6.90;71.50
9116;DHT22;4593;53.652;10.168;2023-03-01T12:30:48;6.70;71.40
9116;DHT22;4593;53.652;10.168;2023-03-01T12:39:25;7.00;71.30
9116;DHT22;4593;53.652;10.168;2023-03-01T12:48:08;6.90;71.10
9116;DHT22;4593;53.652;10.168;2023-03-01T12:53:01;6.90;70.20
9116;DHT22;4593;53.652;10.168;2023-03-01T12:55:37;7.00;70.20
9116;DHT22;4593;53.652;10.168;2023-03-01T12:58:33;7.00;70.10
9116;DHT22;4593;53.652;10.168;2023-03-01T13:09:22;6.80;70.20
9116;DHT22;4593;53.652;10.168;2023-03-01T13:11:49;6.80;70.60
9116;DHT22;4593;53.652;10.168;2023-03-01T13:16:47;6.80;69.80
9116;DHT22;4593;53.652;10.168;2023-03-01T13:19:19;6.70;69.70
9116;DHT22;4593;53.652;10.168;2023-03-01T13:21:47;6.70;70.10
9116;DHT22;4593;53.652;10.168;2023-03-01T13:24:49;6.60;70.40
9116;DHT22;4593;53.652;10.168;2023-03-01T13:27:26;6.70;70.80
9116;DHT22;4593;53.652;10.168;2023-03-01T13:29:59;6.80;69.80
9116;DHT22;4593;53.652;10.168;2023-03-01T13:32:29;6.80;69.10
9116;DHT22;4593;53.652;10.168;2023-03-01T13:35:02;6.90;69.10
9116;DHT22;4593;53.652;10.168;2023-03-01T13:37:34;6.90;68.80
9116;DHT22;4593;53.652;10.168;2023-03-01T13:42:51;7.00;67.60
9116;DHT22;4593;53.652;10.168;2023-03-01T13:45:39;7.00;67.80
9116;DHT22;4593;53.652;10.168;2023-03-01T13:48:15;7.00;66.80
9116;DHT22;4593;53.652;10.168;2023-03-01T13:50:51;7.00;65.90
9116;DHT22;4593;53.652;10.168;2023-03-01T13:53:20;7.00;66.60
9116;DHT22;4593;53.652;10.168;2023-03-01T13:56:17;7.00;65.50
9116;DHT22;4593;53.652;10.168;2023-03-01T14:01:30;7.00;65.70
9116;DHT22;4593;53.652;10.168;2023-03-01T14:03:56;7.00;65.90
9116;DHT22;4593;53.652;10.168;2023-03-01T14:06:30;7.00;65.80
9116;DHT22;4593;53.652;10.168;2023-03-01T14:09:22;7.10;65.50
9116;DHT22;4593;53.652;10.168;2023-03-01T14:19:35;7.00;63.80
9116;DHT22;4593;53.652;10.168;2023-03-01T14:22:18;7.10;62.50
9116;DHT22;4593;53.652;10.168;2023-03-01T14:27:21;7.10;63.00
9116;DHT22;4593;53.652;10.168;2023-03-01T14:30:01;7.00;62.10
9116;DHT22;4593;53.652;10.168;2023-03-01T14:32:29;7.00;62.40
9116;DHT22;4593;53.652;10.168;2023-03-01T14:34:57;6.90;63.50
9116;DHT22;4593;53.652;10.168;2023-03-01T14:37:28;6.90;64.10
9116;DHT22;4593;53.652;10.168;2023-03-01T14:39:55;7.00;64.00
9116;DHT22;4593;53.652;10.168;2023-03-01T14:42:23;6.90;64.00
9116;DHT22;4593;53.652;10.168;2023-03-01T14:44:52;6.90;63.70
9116;DHT22;4593;53.652;10.168;2023-03-01T14:47:37;6.90;64.60
9116;DHT22;4593;53.652;10.168;2023-03-01T14:50:29;7.00;65.50
9116;DHT22;4593;53.652;10.168;2023-03-01T14:52:58;7.00;66.20
9116;DHT22;4593;53.652;10.168;2023-03-01T14:55:34;6.80;67.00
9116;DHT22;4593;53.652;10.168;2023-03-01T14:58:10;6.90;66.60
9116;DHT22;4593;53.652;10.168;2023-03-01T15:00:37;7.00;66.50
9116;DHT22;4593;53.652;10.168;2023-03-01T15:03:27;7.00;66.10
9116;DHT22;4593;53.652;10.168;2023-03-01T15:05:55;7.00;66.10
9116;DHT22;4593;53.652;10.168;2023-03-01T15:08:24;7.00;66.60
9116;DHT22;4593;53.652;10.168;2023-03-01T15:11:03;7.00;66.80
9116;DHT22;4593;53.652;10.168;2023-03-01T15:13:34;7.00;67.00
9116;DHT22;4593;53.652;10.168;2023-03-01T15:16:04;6.90;66.40
9116;DHT22;4593;53.652;10.168;2023-03-01T15:18:31;6.80;68.80
9116;DHT22;4593;53.652;10.168;2023-03-01T15:21:25;6.80;69.10
9116;DHT22;4593;53.652;10.168;2023-03-01T15:24:01;6.80;69.00
9116;DHT22;4593;53.652;10.168;2023-03-01T15:26:30;6.80;68.90
9116;DHT22;4593;53.652;10.168;2023-03-01T15:28:58;6.90;69.10
9116;DHT22;4593;53.652;10.168;2023-03-01T15:31:28;6.80;70.00
9116;DHT22;4593;53.652;10.168;2023-03-01T15:34:23;6.70;70.80
9116;DHT22;4593;53.652;10.168;2023-03-01T15:36:50;6.70;71.20
9116;DHT22;4593;53.652;10.168;2023-03-01T15:39:32;6.60;71.60
9116;DHT22;4593;53.652;10.168;2023-03-01T15:42:05;6.60;71.60
9116;DHT22;4593;53.652;10.168;2023-03-01T15:44:35;6.60;71.30
9116;DHT22;4593;53.652;10.168;2023-03-01T15:47:08;6.50;71.00
9116;DHT22;4593;53.652;10.168;2023-03-01T15:49:46;6.50;70.90
9116;DHT22;4593;53.652;10.168;2023-03-01T15:52:22;6.40;70.80
9116;DHT22;4593;53.652;10.168;2023-03-01T15:54:58;6.40;70.00
9116;DHT22;4593;53.652;10.168;2023-03-01T15:57:25;6.40;69.50
9116;DHT22;4593;53.652;10.168;2023-03-01T15:59:50;6.30;68.70
9116;DHT22;4593;53.652;10.168;2023-03-01T16:02:16;6.30;68.60
9116;DHT22;4593;53.652;10.168;2023-03-01T16:04:41;6.30;67.70
9116;DHT22;4593;53.652;10.168;2023-03-01T16:07:09;6.20;66.50
9116;DHT22;4593;53.652;10.168;2023-03-01T16:09:35;6.20;66.40
9116;DHT22;4593;53.652;10.168;2023-03-01T16:12:01;6.10;66.60
9116;DHT22;4593;53.652;10.168;2023-03-01T16:14:27;6.20;66.90
9116;DHT22;4593;53.652;10.168;2023-03-01T16:16:53;6.10;67.10
9116;DHT22;4593;53.652;10.168;2023-03-01T16:19:19;6.00;67.80
9116;DHT22;4593;53.652;10.168;2023-03-01T16:21:45;6.00;68.60
9116;DHT22;4593;53.652;10.168;2023-03-01T16:24:13;5.90;69.90
9116;DHT22;4593;53.652;10.168;2023-03-01T16:26:38;5.80;71.20
9116;DHT22;4593;53.652;10.168;2023-03-01T16:29:04;5.70;72.80
9116;DHT22;4593;53.652;10.168;2023-03-01T16:31:30;5.60;74.20
9116;DHT22;4593;53.652;10.168;2023-03-01T16:33:58;5.50;76.30
9116;DHT22;4593;53.652;10.168;2023-03-01T16:36:25;5.60;78.90
9116;DHT22;4593;53.652;10.168;2023-03-01T16:38:54;5.40;81.20
9116;DHT22;4593;53.652;10.168;2023-03-01T16:41:21;5.20;82.70
9116;DHT22;4593;53.652;10.168;2023-03-01T16:43:48;5.20;82.80
9116;DHT22;4593;53.652;10.168;2023-03-01T16:46:22;5.10;83.30
9116;DHT22;4593;53.652;10.168;2023-03-01T16:48:49;5.00;84.10
9116;DHT22;4593;53.652;10.168;2023-03-01T16:51:15;4.80;84.70
9116;DHT22;4593;53.652;10.168;2023-03-01T16:53:41;4.70;85.30
9116;DHT22;4593;53.652;10.168;2023-03-01T16:56:09;4.50;85.90
9116;DHT22;4593;53.652;10.168;2023-03-01T16:58:36;4.40;86.40
9116;DHT22;4593;53.652;10.168;2023-03-01T17:01:14;4.30;87.00
9116;DHT22;4593;53.652;10.168;2023-03-01T17:03:41;4.20;87.20
9116;DHT22;4593;53.652;10.168;2023-03-01T17:06:10;4.00;88.10
9116;DHT22;4593;53.652;10.168;2023-03-01T17:08:37;4.00;88.30
9116;DHT22;4593;53.652;10.168;2023-03-01T17:11:20;3.90;88.40
9116;DHT22;4593;53.652;10.168;2023-03-01T17:13:47;3.70;88.70
9116;DHT22;4593;53.652;10.168;2023-03-01T17:16:16;3.70;88.90
9116;DHT22;4593;53.652;10.168;2023-03-01T17:18:42;3.60;89.60
9116;DHT22;4593;53.652;10.168;2023-03-01T17:21:09;3.50;90.10
9116;DHT22;4593;53.652;10.168;2023-03-01T17:23:37;3.20;91.10
9116;DHT22;4593;53.652;10.168;2023-03-01T17:26:04;3.20;91.30
9116;DHT22;4593;53.652;10.168;2023-03-01T17:28:31;3.20;91.40
9116;DHT22;4593;53.652;10.168;2023-03-01T17:30:59;3.00;92.30
9116;DHT22;4593;53.652;10.168;2023-03-01T17:33:27;3.00;92.00
9116;DHT22;4593;53.652;10.168;2023-03-01T17:35:56;3.00;91.80
9116;DHT22;4593;53.652;10.168;2023-03-01T17:38:22;2.90;92.10
9116;DHT22;4593;53.652;10.168;2023-03-01T17:40:48;2.80;92.80
9116;DHT22;4593;53.652;10.168;2023-03-01T17:43:15;2.70;92.70
9116;DHT22;4593;53.652;10.168;2023-03-01T17:45:42;2.60;93.10
9116;DHT22;4593;53.652;10.168;2023-03-01T17:48:12;2.30;94.10
9116;DHT22;4593;53.652;10.168;2023-03-01T17:50:38;2.10;94.90
9116;DHT22;4593;53.652;10.168;2023-03-01T17:53:05;1.90;96.30
9116;DHT22;4593;53.652;10.168;2023-03-01T17:55:35;1.80;96.50
9116;DHT22;4593;53.652;10.168;2023-03-01T17:58:01;1.80;96.40
9116;DHT22;4593;53.652;10.168;2023-03-01T18:00:27;1.80;96.80
9116;DHT22;4593;53.652;10.168;2023-03-01T18:02:53;1.80;97.00
9116;DHT22;4593;53.652;10.168;2023-03-01T18:05:19;1.90;97.80